sensor_id;sensor_type;location;lat;lon;timestamp;pressure;altitude;pressure_sealevel;temperature;humidity
39223;BME280;24936;46.328;11.026;2023-03-05T00:02:20;94045.69;;;-0.40;61.17
39223;BME280;24936;46.328;11.026;2023-03-05T00:04:45;94053.94;;;-0.49;61.07
39223;BME280;24936;46.328;11.026;2023-03-05T00:07:10;94048.78;;;-0.99;63.99
39223;BME280;24936;46.328;11.026;2023-03-05T00:09:38;94059.78;;;-1.29;65.39
39223;BME280;24936;46.328;11.026;2023-03-05T00:12:04;94063.31;;;-1.47;66.16
39223;BME280;24936;46.328;11.026;2023-03-05T00:14:29;94055.25;;;-1.24;65.37
39223;BME280;24936;46.328;11.026;2023-03-05T00:16:55;94058.69;;;-1.41;65.95
39223;BME280;24936;46.328;11.026;2023-03-05T00:19:20;94058.16;;;-1.82;68.31
39223;BME280;24936;46.328;11.026;2023-03-05T00:21:46;94060.72;;;-2.00;68.81
39223;BME280;24936;46.328;11.026;2023-03-05T00:24:14;94061.34;;;-1.95;67.84
39223;BME280;24936;46.328;11.026;2023-03-05T00:26:41;94062.97;;;-2.11;68.49
39223;BME280;24936;46.328;11.026;2023-03-05T00:29:07;94065.66;;;-1.78;67.61
39223;BME280;24936;46.328;11.026;2023-03-05T00:31:34;94057.94;;;-1.43;65.13
39223;BME280;24936;46.328;11.026;2023-03-05T00:34:08;94054.53;;;-1.61;66.17
39223;BME280;24936;46.328;11.026;2023-03-05T00:36:39;94059.06;;;-1.83;66.61
39223;BME280;24936;46.328;11.026;2023-03-05T00:39:05;94053.94;;;-2.20;69.09
39223;BME280;24936;46.328;11.026;2023-03-05T00:41:30;94053.97;;;-2.39;70.37
39223;BME280;24936;46.328;11.026;2023-03-05T00:43:55;94051.88;;;-2.31;69.94
39223;BME280;24936;46.328;11.026;2023-03-05T00:46:21;94052.06;;;-2.17;68.87
39223;BME280;24936;46.328;11.026;2023-03-05T00:48:47;94047.50;;;-2.11;69.21
39223;BME280;24936;46.328;11.026;2023-03-05T00:51:13;94042.66;;;-2.00;68.66
39223;BME280;24936;46.328;11.026;2023-03-05T00:53:38;94049.31;;;-2.31;69.81
39223;BME280;24936;46.328;11.026;2023-03-05T00:56:04;94051.22;;;-2.17;69.48
39223;BME280;24936;46.328;11.026;2023-03-05T00:58:30;94042.22;;;-2.08;68.90
39223;BME280;24936;46.328;11.026;2023-03-05T01:00:59;94039.47;;;-2.05;68.73
39223;BME280;24936;46.328;11.026;2023-03-05T01:03:25;94038.56;;;-1.87;67.47
39223;BME280;24936;46.328;11.026;2023-03-05T01:05:51;94033.19;;;-2.00;68.30
39223;BME280;24936;46.328;11.026;2023-03-05T01:08:16;94035.38;;;-2.09;68.60
39223;BME280;24936;46.328;11.026;2023-03-05T01:10:42;94030.97;;;-2.07;68.29
39223;BME280;24936;46.328;11.026;2023-03-05T01:13:07;94032.72;;;-2.25;68.78
39223;BME280;24936;46.328;11.026;2023-03-05T01:15:32;94027.06;;;-2.34;69.43
39223;BME280;24936;46.328;11.026;2023-03-05T01:17:58;94028.69;;;-2.31;69.24
39223;BME280;24936;46.328;11.026;2023-03-05T01:20:23;94032.94;;;-2.12;68.59
39223;BME280;24936;46.328;11.026;2023-03-05T01:22:49;94033.34;;;-2.03;67.89
39223;BME280;24936;46.328;11.026;2023-03-05T01:25:16;94035.09;;;-2.03;67.81
39223;BME280;24936;46.328;11.026;2023-03-05T01:27:41;94026.81;;;-2.10;68.11
39223;BME280;24936;46.328;11.026;2023-03-05T01:30:08;94026.25;;;-2.34;69.04
39223;BME280;24936;46.328;11.026;2023-03-05T01:32:34;94029.41;;;-2.29;68.92
39223;BME280;24936;46.328;11.026;2023-03-05T01:35:01;94020.28;;;-2.54;69.77
39223;BME280;24936;46.328;11.026;2023-03-05T01:37:27;94028.59;;;-2.66;70.28
39223;BME280;24936;46.328;11.026;2023-03-05T01:39:53;94032.47;;;-2.57;69.86
39223;BME280;24936;46.328;11.026;2023-03-05T01:42:18;94032.88;;;-2.48;69.02
39223;BME280;24936;46.328;11.026;2023-03-05T01:45:03;94016.53;;;-2.47;68.66
39223;BME280;24936;46.328;11.026;2023-03-05T01:47:29;94018.75;;;-2.21;67.30
39223;BME280;24936;46.328;11.026;2023-03-05T01:49:54;94020.94;;;-2.31;67.62
39223;BME280;24936;46.328;11.026;2023-03-05T01:52:22;94025.63;;;-2.39;68.19
39223;BME280;24936;46.328;11.026;2023-03-05T01:54:55;94027.44;;;-2.41;68.67
39223;BME280;24936;46.328;11.026;2023-03-05T01:57:30;94013.13;;;-2.29;68.89
39223;BME280;24936;46.328;11.026;2023-03-05T02:00:06;94018.53;;;-2.17;68.42
39223;BME280;24936;46.328;11.026;2023-03-05T02:02:33;94015.34;;;-1.87;66.58
39223;BME280;24936;46.328;11.026;2023-03-05T02:05:15;94011.56;;;-1.97;66.54
39223;BME280;24936;46.328;11.026;2023-03-05T02:07:42;94019.44;;;-2.18;67.58
39223;BME280;24936;46.328;11.026;2023-03-05T02:12:41;94015.06;;;-2.52;69.45
39223;BME280;24936;46.328;11.026;2023-03-05T02:15:07;94008.19;;;-2.71;69.88
39223;BME280;24936;46.328;11.026;2023-03-05T02:17:33;94007.88;;;-2.28;68.32
39223;BME280;24936;46.328;11.026;2023-03-05T02:20:05;94014.22;;;-2.53;69.13
39223;BME280;24936;46.328;11.026;2023-03-05T02:22:31;94015.22;;;-2.74;70.20
39223;BME280;24936;46.328;11.026;2023-03-05T02:24:56;94024.69;;;-2.94;70.88
39223;BME280;24936;46.328;11.026;2023-03-05T02:27:27;94021.28;;;-3.14;72.22
39223;BME280;24936;46.328;11.026;2023-03-05T02:29:59;94020.19;;;-2.89;71.09
39223;BME280;24936;46.328;11.026;2023-03-05T02:32:26;94013.69;;;-2.79;70.22
39223;BME280;24936;46.328;11.026;2023-03-05T02:34:51;94016.16;;;-3.14;71.65
39223;BME280;24936;46.328;11.026;2023-03-05T02:37:17;94025.25;;;-3.07;71.89
39223;BME280;24936;46.328;11.026;2023-03-05T02:39:42;94010.56;;;-3.04;70.56
39223;BME280;24936;46.328;11.026;2023-03-05T02:42:08;94016.41;;;-3.20;71.74
39223;BME280;24936;46.328;11.026;2023-03-05T02:44:33;94009.59;;;-3.21;71.71
39223;BME280;24936;46.328;11.026;2023-03-05T02:46:59;94011.13;;;-3.17;70.89
39223;BME280;24936;46.328;11.026;2023-03-05T02:49:25;94007.00;;;-3.21;71.36
39223;BME280;24936;46.328;11.026;2023-03-05T02:51:53;94002.50;;;-3.16;71.08
39223;BME280;24936;46.328;11.026;2023-03-05T02:54:18;94002.00;;;-3.24;72.01
39223;BME280;24936;46.328;11.026;2023-03-05T02:56:44;93995.94;;;-3.23;72.17
39223;BME280;24936;46.328;11.026;2023-03-05T02:59:09;93995.00;;;-3.01;71.12
39223;BME280;24936;46.328;11.026;2023-03-05T03:01:35;93993.31;;;-3.02;70.93
39223;BME280;24936;46.328;11.026;2023-03-05T03:04:00;93997.47;;;-3.19;71.44
39223;BME280;24936;46.328;11.026;2023-03-05T03:06:29;93988.50;;;-3.29;72.04
39223;BME280;24936;46.328;11.026;2023-03-05T03:08:54;93991.41;;;-2.80;69.97
39223;BME280;24936;46.328;11.026;2023-03-05T03:11:19;93987.34;;;-2.66;69.54
39223;BME280;24936;46.328;11.026;2023-03-05T03:13:45;93985.03;;;-2.53;68.65
39223;BME280;24936;46.328;11.026;2023-03-05T03:16:12;93977.72;;;-2.63;68.72
39223;BME280;24936;46.328;11.026;2023-03-05T03:18:40;93980.13;;;-2.77;69.05
39223;BME280;24936;46.328;11.026;2023-03-05T03:21:06;93967.78;;;-2.16;66.84
39223;BME280;24936;46.328;11.026;2023-03-05T03:23:32;93965.59;;;-2.24;66.61
39223;BME280;24936;46.328;11.026;2023-03-05T03:25:58;93970.13;;;-2.11;66.84
39223;BME280;24936;46.328;11.026;2023-03-05T03:28:24;93972.41;;;-1.88;65.49
39223;BME280;24936;46.328;11.026;2023-03-05T03:30:49;93970.00;;;-1.91;66.01
39223;BME280;24936;46.328;11.026;2023-03-05T03:33:15;93979.66;;;-2.49;67.78
39223;BME280;24936;46.328;11.026;2023-03-05T03:35:43;93972.22;;;-2.55;67.87
39223;BME280;24936;46.328;11.026;2023-03-05T03:38:10;93965.56;;;-2.59;68.39
39223;BME280;24936;46.328;11.026;2023-03-05T03:40:37;93965.56;;;-2.78;69.05
39223;BME280;24936;46.328;11.026;2023-03-05T03:43:02;93964.44;;;-2.53;68.45
39223;BME280;24936;46.328;11.026;2023-03-05T03:45:28;93966.19;;;-2.36;67.60
39223;BME280;24936;46.328;11.026;2023-03-05T03:47:53;93977.22;;;-2.52;68.75
39223;BME280;24936;46.328;11.026;2023-03-05T03:54:12;93969.56;;;-2.90;70.48
39223;BME280;24936;46.328;11.026;2023-03-05T03:56:37;93972.59;;;-2.82;70.29
39223;BME280;24936;46.328;11.026;2023-03-05T03:59:03;93969.75;;;-2.39;68.21
39223;BME280;24936;46.328;11.026;2023-03-05T04:01:28;93966.69;;;-2.84;70.04
39223;BME280;24936;46.328;11.026;2023-03-05T04:03:54;93970.91;;;-3.00;70.43
39223;BME280;24936;46.328;11.026;2023-03-05T04:06:19;93967.47;;;-3.01;70.77
39223;BME280;24936;46.328;11.026;2023-03-05T04:08:44;93967.56;;;-3.02;70.37
39223;BME280;24936;46.328;11.026;2023-03-05T04:11:10;93953.06;;;-3.05;70.40
39223;BME280;24936;46.328;11.026;2023-03-05T04:13:35;93956.28;;;-3.00;70.09
39223;BME280;24936;46.328;11.026;2023-03-05T04:16:01;93955.75;;;-2.70;69.03
39223;BME280;24936;46.328;11.026;2023-03-05T04:18:26;93944.22;;;-2.63;68.06
39223;BME280;24936;46.328;11.026;2023-03-05T04:20:52;93945.63;;;-2.55;67.54
39223;BME280;24936;46.328;11.026;2023-03-05T04:23:17;93945.84;;;-2.60;67.82
39223;BME280;24936;46.328;11.026;2023-03-05T04:25:43;93941.31;;;-2.37;66.71
39223;BME280;24936;46.328;11.026;2023-03-05T04:28:08;93945.03;;;-2.80;68.28
39223;BME280;24936;46.328;11.026;2023-03-05T04:30:34;93944.72;;;-2.91;69.18
39223;BME280;24936;46.328;11.026;2023-03-05T04:32:59;93948.97;;;-2.90;69.20
39223;BME280;24936;46.328;11.026;2023-03-05T04:35:24;93948.34;;;-2.95;69.49
39223;BME280;24936;46.328;11.026;2023-03-05T04:37:51;93954.06;;;-3.08;69.58
39223;BME280;24936;46.328;11.026;2023-03-05T04:40:16;93946.31;;;-3.08;69.64
39223;BME280;24936;46.328;11.026;2023-03-05T04:42:43;93943.84;;;-3.09;69.63
39223;BME280;24936;46.328;11.026;2023-03-05T04:45:09;93940.34;;;-3.27;70.67
39223;BME280;24936;46.328;11.026;2023-03-05T04:47:35;93947.22;;;-3.47;71.44
39223;BME280;24936;46.328;11.026;2023-03-05T04:50:01;93946.75;;;-3.17;70.47
39223;BME280;24936;46.328;11.026;2023-03-05T04:52:28;93942.56;;;-3.00;69.58
39223;BME280;24936;46.328;11.026;2023-03-05T04:54:53;93942.03;;;-2.70;67.85
39223;BME280;24936;46.328;11.026;2023-03-05T04:57:19;93938.13;;;-3.16;69.29
39223;BME280;24936;46.328;11.026;2023-03-05T04:59:44;93948.03;;;-3.65;71.65
39223;BME280;24936;46.328;11.026;2023-03-05T05:02:10;93949.09;;;-3.90;72.77
39223;BME280;24936;46.328;11.026;2023-03-05T05:04:35;93949.00;;;-3.68;71.73
39223;BME280;24936;46.328;11.026;2023-03-05T05:07:01;93942.50;;;-3.56;71.57
39223;BME280;24936;46.328;11.026;2023-03-05T05:09:26;93939.16;;;-3.39;70.48
39223;BME280;24936;46.328;11.026;2023-03-05T05:11:52;93943.88;;;-3.89;72.39
39223;BME280;24936;46.328;11.026;2023-03-05T05:14:18;93944.78;;;-3.90;72.78
39223;BME280;24936;46.328;11.026;2023-03-05T05:16:44;93946.56;;;-4.11;73.47
39223;BME280;24936;46.328;11.026;2023-03-05T05:19:09;93941.59;;;-4.16;73.84
39223;BME280;24936;46.328;11.026;2023-03-05T05:21:35;93936.41;;;-4.14;73.62
39223;BME280;24936;46.328;11.026;2023-03-05T05:24:00;93948.09;;;-4.07;73.97
39223;BME280;24936;46.328;11.026;2023-03-05T05:26:26;93938.44;;;-4.02;73.54
39223;BME280;24936;46.328;11.026;2023-03-05T05:28:52;93941.59;;;-3.95;72.93
39223;BME280;24936;46.328;11.026;2023-03-05T05:31:18;93942.03;;;-3.85;72.74
39223;BME280;24936;46.328;11.026;2023-03-05T05:33:44;93949.19;;;-3.92;72.84
39223;BME280;24936;46.328;11.026;2023-03-05T05:36:12;93949.16;;;-3.71;71.80
39223;BME280;24936;46.328;11.026;2023-03-05T05:38:38;93947.94;;;-3.83;72.29
39223;BME280;24936;46.328;11.026;2023-03-05T05:41:07;93946.56;;;-3.71;72.16
39223;BME280;24936;46.328;11.026;2023-03-05T05:43:34;93954.25;;;-3.70;71.70
39223;BME280;24936;46.328;11.026;2023-03-05T05:46:01;93949.00;;;-3.68;71.50
39223;BME280;24936;46.328;11.026;2023-03-05T05:48:27;93941.75;;;-3.20;69.35
39223;BME280;24936;46.328;11.026;2023-03-05T05:50:53;93937.38;;;-3.37;70.03
39223;BME280;24936;46.328;11.026;2023-03-05T05:53:18;93944.53;;;-3.63;71.50
39223;BME280;24936;46.328;11.026;2023-03-05T05:55:44;93954.09;;;-3.66;71.95
39223;BME280;24936;46.328;11.026;2023-03-05T05:58:09;93948.13;;;-3.67;71.72
39223;BME280;24936;46.328;11.026;2023-03-05T06:00:35;93958.44;;;-3.48;71.30
39223;BME280;24936;46.328;11.026;2023-03-05T06:03:00;93955.97;;;-3.51;71.07
39223;BME280;24936;46.328;11.026;2023-03-05T06:05:25;93947.34;;;-3.69;71.86
39223;BME280;24936;46.328;11.026;2023-03-05T06:07:51;93953.69;;;-3.57;71.48
39223;BME280;24936;46.328;11.026;2023-03-05T06:10:16;93956.53;;;-3.63;71.52
39223;BME280;24936;46.328;11.026;2023-03-05T06:12:42;93956.16;;;-3.75;72.40
39223;BME280;24936;46.328;11.026;2023-03-05T06:15:08;93953.19;;;-3.46;71.05
39223;BME280;24936;46.328;11.026;2023-03-05T06:17:34;93954.84;;;-3.64;71.77
39223;BME280;24936;46.328;11.026;2023-03-05T06:19:59;93959.44;;;-3.71;72.35
39223;BME280;24936;46.328;11.026;2023-03-05T06:22:25;93953.78;;;-3.20;70.36
39223;BME280;24936;46.328;11.026;2023-03-05T06:24:51;93955.38;;;-3.18;70.36
39223;BME280;24936;46.328;11.026;2023-03-05T06:27:16;93954.06;;;-3.08;69.75
39223;BME280;24936;46.328;11.026;2023-03-05T06:29:42;93946.94;;;-2.83;68.44
39223;BME280;24936;46.328;11.026;2023-03-05T06:32:07;93942.00;;;-3.26;71.90
39223;BME280;24936;46.328;11.026;2023-03-05T06:34:33;93945.44;;;-3.45;72.99
39223;BME280;24936;46.328;11.026;2023-03-05T06:36:58;93942.56;;;-3.39;73.08
39223;BME280;24936;46.328;11.026;2023-03-05T06:39:23;93954.19;;;-3.11;71.56
39223;BME280;24936;46.328;11.026;2023-03-05T06:41:50;93949.53;;;-3.02;71.47
39223;BME280;24936;46.328;11.026;2023-03-05T06:44:16;93948.59;;;-2.82;70.53
39223;BME280;24936;46.328;11.026;2023-03-05T06:46:44;93949.75;;;-2.70;70.30
39223;BME280;24936;46.328;11.026;2023-03-05T06:49:09;93942.88;;;-2.70;70.66
39223;BME280;24936;46.328;11.026;2023-03-05T06:51:37;93943.69;;;-2.69;70.92
39223;BME280;24936;46.328;11.026;2023-03-05T06:54:10;93943.50;;;-2.47;69.92
39223;BME280;24936;46.328;11.026;2023-03-05T06:56:37;93939.94;;;-2.27;68.57
39223;BME280;24936;46.328;11.026;2023-03-05T06:59:04;93939.50;;;-2.18;68.92
39223;BME280;24936;46.328;11.026;2023-03-05T07:01:30;93942.81;;;-2.16;69.45
39223;BME280;24936;46.328;11.026;2023-03-05T07:03:55;93940.38;;;-1.83;68.18
39223;BME280;24936;46.328;11.026;2023-03-05T07:06:25;93939.69;;;-1.70;67.12
39223;BME280;24936;46.328;11.026;2023-03-05T07:08:58;93937.00;;;-1.68;67.61
39223;BME280;24936;46.328;11.026;2023-03-05T07:11:25;93936.00;;;-1.65;68.23
39223;BME280;24936;46.328;11.026;2023-03-05T07:13:51;93946.69;;;-1.56;67.63
39223;BME280;24936;46.328;11.026;2023-03-05T07:16:21;93945.38;;;-1.47;66.69
39223;BME280;24936;46.328;11.026;2023-03-05T07:18:47;93940.34;;;-1.32;66.04
39223;BME280;24936;46.328;11.026;2023-03-05T07:21:16;93938.50;;;-1.30;66.24
39223;BME280;24936;46.328;11.026;2023-03-05T07:23:42;93932.94;;;-1.23;65.40
39223;BME280;24936;46.328;11.026;2023-03-05T07:26:07;93939.13;;;-1.09;66.27
39223;BME280;24936;46.328;11.026;2023-03-05T07:28:33;93929.91;;;-1.31;66.48
39223;BME280;24936;46.328;11.026;2023-03-05T07:31:01;93928.59;;;-1.38;66.32
39223;BME280;24936;46.328;11.026;2023-03-05T07:33:27;93932.38;;;-1.12;66.47
39223;BME280;24936;46.328;11.026;2023-03-05T07:35:52;93929.00;;;-0.82;64.11
39223;BME280;24936;46.328;11.026;2023-03-05T07:38:18;93930.59;;;-0.33;60.94
39223;BME280;24936;46.328;11.026;2023-03-05T07:40:44;93924.75;;;-0.06;60.10
39223;BME280;24936;46.328;11.026;2023-03-05T07:43:10;93925.81;;;0.06;59.46
39223;BME280;24936;46.328;11.026;2023-03-05T07:45:41;93919.59;;;1.10;57.17
39223;BME280;24936;46.328;11.026;2023-03-05T07:48:11;93915.94;;;2.85;52.53
39223;BME280;24936;46.328;11.026;2023-03-05T07:50:37;93905.69;;;3.21;48.82
39223;BME280;24936;46.328;11.026;2023-03-05T07:53:03;93911.63;;;3.10;48.17
39223;BME280;24936;46.328;11.026;2023-03-05T07:55:28;93911.16;;;2.92;46.92
39223;BME280;24936;46.328;11.026;2023-03-05T07:57:54;93894.94;;;3.26;46.60
39223;BME280;24936;46.328;11.026;2023-03-05T08:00:19;93896.63;;;3.51;46.03
39223;BME280;24936;46.328;11.026;2023-03-05T08:02:45;93896.78;;;3.36;46.41
39223;BME280;24936;46.328;11.026;2023-03-05T08:05:11;93895.56;;;2.79;46.02
39223;BME280;24936;46.328;11.026;2023-03-05T08:07:37;93900.19;;;2.50;47.29
39223;BME280;24936;46.328;11.026;2023-03-05T08:10:03;93892.47;;;2.61;48.39
39223;BME280;24936;46.328;11.026;2023-03-05T08:12:29;93883.72;;;3.25;45.37
39223;BME280;24936;46.328;11.026;2023-03-05T08:14:55;93886.25;;;3.62;44.41
39223;BME280;24936;46.328;11.026;2023-03-05T08:17:20;93876.19;;;3.93;44.65
39223;BME280;24936;46.328;11.026;2023-03-05T08:19:45;93880.88;;;3.77;43.53
39223;BME280;24936;46.328;11.026;2023-03-05T08:22:11;93870.44;;;4.12;43.25
39223;BME280;24936;46.328;11.026;2023-03-05T08:24:40;93864.31;;;4.93;41.69
39223;BME280;24936;46.328;11.026;2023-03-05T08:27:06;93858.50;;;5.01;40.47
39223;BME280;24936;46.328;11.026;2023-03-05T08:29:31;93853.66;;;4.39;42.07
39223;BME280;24936;46.328;11.026;2023-03-05T08:31:56;93859.13;;;3.89;46.24
39223;BME280;24936;46.328;11.026;2023-03-05T08:34:22;93866.16;;;3.64;45.91
39223;BME280;24936;46.328;11.026;2023-03-05T08:36:47;93853.16;;;3.40;46.09
39223;BME280;24936;46.328;11.026;2023-03-05T08:39:13;93853.41;;;3.48;47.57
39223;BME280;24936;46.328;11.026;2023-03-05T08:41:39;93855.59;;;3.90;48.10
39223;BME280;24936;46.328;11.026;2023-03-05T08:44:05;93845.88;;;3.81;49.23
39223;BME280;24936;46.328;11.026;2023-03-05T08:46:30;93844.63;;;3.62;52.03
39223;BME280;24936;46.328;11.026;2023-03-05T08:48:56;93837.06;;;3.71;53.11
39223;BME280;24936;46.328;11.026;2023-03-05T08:51:23;93838.50;;;3.75;52.23
39223;BME280;24936;46.328;11.026;2023-03-05T08:53:50;93835.22;;;3.84;52.69
39223;BME280;24936;46.328;11.026;2023-03-05T08:56:16;93835.56;;;3.91;50.25
39223;BME280;24936;46.328;11.026;2023-03-05T08:58:42;93832.88;;;3.92;50.49
39223;BME280;24936;46.328;11.026;2023-03-05T09:01:08;93831.28;;;4.59;49.78
39223;BME280;24936;46.328;11.026;2023-03-05T09:03:34;93830.78;;;5.32;45.53
39223;BME280;24936;46.328;11.026;2023-03-05T09:06:01;93830.19;;;5.40;45.25
39223;BME280;24936;46.328;11.026;2023-03-05T09:08:27;93817.81;;;6.69;42.74
39223;BME280;24936;46.328;11.026;2023-03-05T09:10:53;93813.81;;;8.81;38.49
39223;BME280;24936;46.328;11.026;2023-03-05T09:13:19;93808.47;;;9.65;34.58
39223;BME280;24936;46.328;11.026;2023-03-05T09:15:44;93804.28;;;10.17;33.04
39223;BME280;24936;46.328;11.026;2023-03-05T09:18:10;93801.19;;;10.39;32.28
39223;BME280;24936;46.328;11.026;2023-03-05T09:20:36;93798.22;;;11.63;31.51
39223;BME280;24936;46.328;11.026;2023-03-05T09:23:02;93798.72;;;11.91;29.90
39223;BME280;24936;46.328;11.026;2023-03-05T09:25:27;93784.91;;;12.31;29.64
39223;BME280;24936;46.328;11.026;2023-03-05T09:27:53;93778.72;;;12.72;27.50
39223;BME280;24936;46.328;11.026;2023-03-05T09:30:19;93775.28;;;13.51;28.35
39223;BME280;24936;46.328;11.026;2023-03-05T09:32:44;93774.09;;;13.76;26.54
39223;BME280;24936;46.328;11.026;2023-03-05T09:35:10;93775.75;;;13.77;27.87
39223;BME280;24936;46.328;11.026;2023-03-05T09:37:36;93763.88;;;13.73;28.43
39223;BME280;24936;46.328;11.026;2023-03-05T09:40:01;93764.81;;;13.26;26.67
39223;BME280;24936;46.328;11.026;2023-03-05T09:45:29;93750.22;;;12.50;27.75
39223;BME280;24936;46.328;11.026;2023-03-05T09:53:11;93736.84;;;13.63;28.65
39223;BME280;24936;46.328;11.026;2023-03-05T09:55:42;93739.72;;;13.76;29.17
39223;BME280;24936;46.328;11.026;2023-03-05T09:58:17;93731.00;;;13.13;28.21
39223;BME280;24936;46.328;11.026;2023-03-05T10:00:44;93723.75;;;14.61;27.47
39223;BME280;24936;46.328;11.026;2023-03-05T10:06:23;93710.31;;;15.66;26.41
39223;BME280;24936;46.328;11.026;2023-03-05T10:08:55;93725.94;;;15.03;26.40
39223;BME280;24936;46.328;11.026;2023-03-05T10:14:15;93715.31;;;14.28;28.32
39223;BME280;24936;46.328;11.026;2023-03-05T10:17:04;93711.94;;;14.64;26.44
39223;BME280;24936;46.328;11.026;2023-03-05T10:27:57;93687.16;;;15.75;25.69
39223;BME280;24936;46.328;11.026;2023-03-05T10:33:11;93665.91;;;15.97;22.45
39223;BME280;24936;46.328;11.026;2023-03-05T10:42:26;93654.91;;;16.00;23.22
39223;BME280;24936;46.328;11.026;2023-03-05T10:49:52;93649.91;;;16.12;22.45
39223;BME280;24936;46.328;11.026;2023-03-05T10:52:39;93655.94;;;15.99;22.75
39223;BME280;24936;46.328;11.026;2023-03-05T10:55:17;93647.25;;;14.66;23.94
39223;BME280;24936;46.328;11.026;2023-03-05T10:57:43;93644.78;;;14.20;24.48
39223;BME280;24936;46.328;11.026;2023-03-05T11:00:19;93635.63;;;15.19;23.53
39223;BME280;24936;46.328;11.026;2023-03-05T11:03:06;93625.50;;;14.56;23.37
39223;BME280;24936;46.328;11.026;2023-03-05T11:11:02;93614.63;;;15.68;23.75
39223;BME280;24936;46.328;11.026;2023-03-05T11:13:28;93605.84;;;16.17;21.18
39223;BME280;24936;46.328;11.026;2023-03-05T11:16:02;93608.84;;;15.79;22.64
39223;BME280;24936;46.328;11.026;2023-03-05T11:18:28;93600.22;;;16.34;21.70
39223;BME280;24936;46.328;11.026;2023-03-05T11:21:09;93594.47;;;15.67;19.98
39223;BME280;24936;46.328;11.026;2023-03-05T11:23:34;93586.56;;;16.92;20.68
39223;BME280;24936;46.328;11.026;2023-03-05T11:26:04;93581.13;;;17.34;19.79
39223;BME280;24936;46.328;11.026;2023-03-05T11:28:56;93568.41;;;17.03;21.50
39223;BME280;24936;46.328;11.026;2023-03-05T11:31:24;93569.22;;;15.78;21.65
39223;BME280;24936;46.328;11.026;2023-03-05T11:34:05;93561.19;;;16.28;20.92
39223;BME280;24936;46.328;11.026;2023-03-05T11:36:39;93562.13;;;17.44;20.95
39223;BME280;24936;46.328;11.026;2023-03-05T11:41:36;93549.69;;;18.57;17.78
39223;BME280;24936;46.328;11.026;2023-03-05T11:44:31;93542.78;;;18.82;19.60
39223;BME280;24936;46.328;11.026;2023-03-05T11:47:16;93532.25;;;17.55;22.01
39223;BME280;24936;46.328;11.026;2023-03-05T11:49:47;93524.97;;;15.78;20.22
39223;BME280;24936;46.328;11.026;2023-03-05T11:52:40;93531.25;;;16.05;21.64
39223;BME280;24936;46.328;11.026;2023-03-05T11:55:29;93521.97;;;16.30;20.69
39223;BME280;24936;46.328;11.026;2023-03-05T11:58:24;93522.91;;;16.09;21.05
39223;BME280;24936;46.328;11.026;2023-03-05T12:00:51;93513.31;;;16.56;20.68
39223;BME280;24936;46.328;11.026;2023-03-05T12:03:40;93512.22;;;17.12;19.33
39223;BME280;24936;46.328;11.026;2023-03-05T12:06:40;93498.63;;;16.12;19.57
39223;BME280;24936;46.328;11.026;2023-03-05T12:09:13;93497.38;;;16.08;20.37
39223;BME280;24936;46.328;11.026;2023-03-05T12:11:41;93492.75;;;16.92;21.43
39223;BME280;24936;46.328;11.026;2023-03-05T12:14:27;93479.69;;;17.37;21.11
39223;BME280;24936;46.328;11.026;2023-03-05T12:17:07;93480.25;;;16.86;20.54
39223;BME280;24936;46.328;11.026;2023-03-05T12:22:22;93470.41;;;15.34;21.02
39223;BME280;24936;46.328;11.026;2023-03-05T12:24:49;93468.53;;;15.91;22.39
39223;BME280;24936;46.328;11.026;2023-03-05T12:27:31;93461.31;;;16.27;21.63
39223;BME280;24936;46.328;11.026;2023-03-05T12:29:57;93462.31;;;15.77;22.86
39223;BME280;24936;46.328;11.026;2023-03-05T12:35:24;93442.31;;;17.12;23.87
39223;BME280;24936;46.328;11.026;2023-03-05T12:43:01;93438.78;;;17.38;20.62
39223;BME280;24936;46.328;11.026;2023-03-05T12:45:38;93422.06;;;18.10;21.47
39223;BME280;24936;46.328;11.026;2023-03-05T13:00:44;93405.44;;;15.86;21.92
39223;BME280;24936;46.328;11.026;2023-03-05T13:03:20;93404.44;;;16.90;21.83
39223;BME280;24936;46.328;11.026;2023-03-05T13:05:49;93409.59;;;16.98;23.74
39223;BME280;24936;46.328;11.026;2023-03-05T13:10:56;93398.31;;;16.89;24.31
39223;BME280;24936;46.328;11.026;2023-03-05T13:13:24;93393.72;;;15.67;22.93
39223;BME280;24936;46.328;11.026;2023-03-05T13:15:51;93393.09;;;16.07;24.89
39223;BME280;24936;46.328;11.026;2023-03-05T13:18:24;93385.28;;;15.50;23.28
39223;BME280;24936;46.328;11.026;2023-03-05T13:21:07;93373.41;;;15.46;23.85
39223;BME280;24936;46.328;11.026;2023-03-05T13:23:37;93375.88;;;14.84;24.50
39223;BME280;24936;46.328;11.026;2023-03-05T13:28:29;93381.44;;;15.59;24.68
39223;BME280;24936;46.328;11.026;2023-03-05T13:30:58;93360.69;;;15.28;27.05
39223;BME280;24936;46.328;11.026;2023-03-05T13:33:32;93367.50;;;15.44;26.14
39223;BME280;24936;46.328;11.026;2023-03-05T13:35:58;93365.75;;;15.58;25.96
39223;BME280;24936;46.328;11.026;2023-03-05T13:38:42;93354.13;;;15.59;24.78
39223;BME280;24936;46.328;11.026;2023-03-05T13:46:08;93354.84;;;15.39;25.80
39223;BME280;24936;46.328;11.026;2023-03-05T13:48:34;93340.25;;;15.64;26.00
39223;BME280;24936;46.328;11.026;2023-03-05T13:50:59;93350.69;;;14.66;27.25
39223;BME280;24936;46.328;11.026;2023-03-05T13:53:29;93346.75;;;15.12;27.89
39223;BME280;24936;46.328;11.026;2023-03-05T13:56:01;93346.94;;;15.11;25.91
39223;BME280;24936;46.328;11.026;2023-03-05T13:58:52;93340.13;;;15.02;27.47
39223;BME280;24936;46.328;11.026;2023-03-05T14:01:34;93338.50;;;14.50;27.49
39223;BME280;24936;46.328;11.026;2023-03-05T14:06:45;93333.31;;;13.92;28.41
39223;BME280;24936;46.328;11.026;2023-03-05T14:09:21;93332.50;;;13.55;28.24
39223;BME280;24936;46.328;11.026;2023-03-05T14:11:57;93321.84;;;13.48;28.57
39223;BME280;24936;46.328;11.026;2023-03-05T14:14:25;93323.25;;;12.99;29.64
39223;BME280;24936;46.328;11.026;2023-03-05T14:16:52;93323.25;;;12.99;29.39
39223;BME280;24936;46.328;11.026;2023-03-05T14:19:43;93323.56;;;13.56;30.99
39223;BME280;24936;46.328;11.026;2023-03-05T14:22:29;93315.78;;;12.88;29.52
39223;BME280;24936;46.328;11.026;2023-03-05T14:24:55;93318.38;;;12.19;30.84